createdAt,value
2023-03-31T00:02:49.330Z,10.38
2023-03-31T00:05:58.385Z,10.35
2023-03-31T00:09:03.710Z,10.33
2023-03-31T00:12:07.956Z,10.32
2023-03-31T00:15:12.339Z,10.29
2023-03-31T00:18:16.142Z,10.25
2023-03-31T00:21:25.945Z,10.22
2023-03-31T00:24:32.846Z,10.17
2023-03-31T00:27:36.485Z,10.16
2023-03-31T00:30:40.437Z,10.20
2023-03-31T00:33:44.307Z,10.17
2023-03-31T00:36:48.371Z,10.15
2023-03-31T00:39:53.269Z,10.14
2023-03-31T00:42:56.720Z,10.12
2023-03-31T00:46:18.141Z,10.04
2023-03-31T00:49:30.181Z,10.02
2023-03-31T00:52:37.835Z,10.07
2023-03-31T00:55:47.444Z,10.06
2023-03-31T00:58:53.979Z,10.07
2023-03-31T01:02:02.828Z,10.08
2023-03-31T01:05:08.562Z,10.06
2023-03-31T01:08:13.356Z,10.04
2023-03-31T01:11:26.227Z,10.03
2023-03-31T01:14:30.454Z,10.04
2023-03-31T01:17:35.802Z,10.01
2023-03-31T01:21:19.803Z,10.00
2023-03-31T01:25:12.532Z,9.96
2023-03-31T01:28:33.764Z,9.96
2023-03-31T01:32:22.000Z,9.94
2023-03-31T01:36:26.332Z,9.94
2023-03-31T01:40:18.088Z,9.93
2023-03-31T01:43:27.057Z,9.92
2023-03-31T01:46:37.493Z,9.92
2023-03-31T01:49:52.293Z,9.92
2023-03-31T01:53:05.485Z,9.93
2023-03-31T01:56:19.556Z,9.91
2023-03-31T01:59:31.201Z,9.92
2023-03-31T02:02:40.990Z,9.95
2023-03-31T02:05:52.678Z,9.96
2023-03-31T02:09:02.285Z,9.96
2023-03-31T02:12:12.779Z,9.93
2023-03-31T02:15:25.003Z,9.92
2023-03-31T02:18:38.434Z,9.92
2023-03-31T02:21:43.024Z,9.91
2023-03-31T02:24:49.980Z,9.89
2023-03-31T02:28:01.300Z,9.82
2023-03-31T02:31:24.788Z,9.78
2023-03-31T02:34:28.536Z,9.77
2023-03-31T02:37:32.677Z,9.79
2023-03-31T02:40:36.363Z,9.80
2023-03-31T02:43:41.333Z,9.82
2023-03-31T02:46:45.485Z,9.84
2023-03-31T02:49:54.446Z,9.82
2023-03-31T02:53:09.584Z,9.84
2023-03-31T02:56:37.124Z,9.83
2023-03-31T02:59:58.059Z,9.83
2023-03-31T03:03:20.001Z,9.81
2023-03-31T03:06:42.932Z,9.83
2023-03-31T03:10:02.293Z,9.79
2023-03-31T03:13:14.630Z,9.82
2023-03-31T03:16:28.374Z,9.77
2023-03-31T03:19:31.999Z,9.79
2023-03-31T03:22:37.138Z,9.82
2023-03-31T03:25:41.239Z,9.81
2023-03-31T03:28:44.828Z,9.85
2023-03-31T03:31:49.738Z,9.82
2023-03-31T03:34:53.250Z,9.78
2023-03-31T03:37:56.846Z,9.71
2023-03-31T03:41:00.696Z,9.71
2023-03-31T03:44:04.290Z,9.67
2023-03-31T03:47:09.281Z,9.65
2023-03-31T03:50:15.924Z,9.61
2023-03-31T03:53:20.712Z,9.63
2023-03-31T03:56:24.251Z,9.66
2023-03-31T03:59:27.815Z,9.63
2023-03-31T04:02:32.842Z,9.61
2023-03-31T04:05:36.407Z,9.61
2023-03-31T04:08:39.933Z,9.62
2023-03-31T04:11:43.508Z,9.61
2023-03-31T04:14:47.024Z,9.60
2023-03-31T04:17:54.815Z,9.62
2023-03-31T04:21:05.107Z,9.60
2023-03-31T04:24:09.350Z,9.58
2023-03-31T04:27:13.565Z,9.56
2023-03-31T04:30:23.731Z,9.58
2023-03-31T04:33:28.839Z,9.56
2023-03-31T04:36:32.698Z,9.54
2023-03-31T04:39:36.240Z,9.51
2023-03-31T04:42:39.734Z,9.50
2023-03-31T04:45:43.942Z,9.49
2023-03-31T04:48:48.954Z,9.43
2023-03-31T04:51:52.881Z,9.38
2023-03-31T04:54:56.515Z,9.32
2023-03-31T04:58:00.289Z,9.29
2023-03-31T05:01:06.492Z,9.32
2023-03-31T05:04:12.224Z,9.27
2023-03-31T05:07:15.816Z,9.26
2023-03-31T05:10:19.638Z,9.20
2023-03-31T05:13:23.243Z,9.20
2023-03-31T05:16:26.807Z,9.21
2023-03-31T05:19:31.913Z,9.22
2023-03-31T05:22:37.998Z,9.16
2023-03-31T05:25:42.365Z,9.16
2023-03-31T05:28:46.042Z,9.17
2023-03-31T05:31:50.014Z,9.39
2023-03-31T05:34:57.131Z,9.28
2023-03-31T05:38:00.689Z,9.28
2023-03-31T05:41:04.466Z,9.39
2023-03-31T05:44:08.670Z,9.46
2023-03-31T05:47:12.316Z,9.33
2023-03-31T05:50:17.445Z,9.12
2023-03-31T05:53:21.150Z,9.09
2023-03-31T05:56:25.122Z,9.06
2023-03-31T05:59:29.020Z,9.02
2023-03-31T06:02:34.064Z,8.88
2023-03-31T06:05:39.380Z,8.83
2023-03-31T06:08:43.807Z,8.82
2023-03-31T06:11:49.391Z,8.74
2023-03-31T06:14:53.855Z,8.80
2023-03-31T06:17:57.430Z,8.70
2023-03-31T06:21:02.880Z,8.73
2023-03-31T06:24:07.015Z,8.65
2023-03-31T06:27:10.796Z,8.71
2023-03-31T06:30:15.294Z,8.63
2023-03-31T06:33:18.884Z,8.68
2023-03-31T06:36:24.380Z,8.65
2023-03-31T06:39:28.653Z,8.70
2023-03-31T06:42:32.176Z,8.68
2023-03-31T06:45:35.791Z,8.75
2023-03-31T06:48:39.572Z,8.77
2023-03-31T06:51:44.539Z,8.73
2023-03-31T06:54:48.028Z,8.80
2023-03-31T06:57:51.629Z,8.82
2023-03-31T07:00:55.297Z,8.80
2023-03-31T07:03:58.823Z,8.90
2023-03-31T07:07:04.087Z,9.01
2023-03-31T07:10:08.868Z,8.99
2023-03-31T07:13:13.641Z,9.06
2023-03-31T07:16:17.244Z,8.96
2023-03-31T07:19:21.215Z,8.93
2023-03-31T07:22:26.254Z,8.99
2023-03-31T07:25:29.893Z,9.04
2023-03-31T07:28:33.471Z,9.13
2023-03-31T07:31:37.425Z,9.19
2023-03-31T07:34:41.756Z,9.16
2023-03-31T07:37:51.178Z,9.25
2023-03-31T07:41:07.646Z,9.27
2023-03-31T07:44:12.839Z,9.27
2023-03-31T07:47:16.964Z,9.31
2023-03-31T07:50:21.486Z,9.39
2023-03-31T07:53:26.555Z,9.30
2023-03-31T07:56:30.123Z,9.44
2023-03-31T07:59:33.977Z,9.50
2023-03-31T08:02:38.645Z,9.58
2023-03-31T08:05:42.384Z,9.64
2023-03-31T08:08:47.624Z,9.64
2023-03-31T08:11:51.589Z,9.65
2023-03-31T08:14:55.113Z,9.72
2023-03-31T08:17:58.775Z,9.79
2023-03-31T08:21:02.345Z,9.74
2023-03-31T08:24:07.598Z,9.73
2023-03-31T08:27:12.580Z,9.71
2023-03-31T08:30:16.712Z,9.70
2023-03-31T08:33:20.218Z,9.84
2023-03-31T08:36:23.802Z,9.93
2023-03-31T08:39:28.887Z,9.89
2023-03-31T08:42:41.951Z,9.85
2023-03-31T08:45:50.344Z,10.08
2023-03-31T08:48:59.223Z,9.98
2023-03-31T08:52:10.311Z,9.96
2023-03-31T08:55:25.145Z,10.05
2023-03-31T08:58:40.106Z,10.13
2023-03-31T09:01:56.246Z,10.23
2023-03-31T09:05:31.594Z,10.19
2023-03-31T09:08:39.254Z,9.94
2023-03-31T09:11:55.025Z,9.95
2023-03-31T09:15:02.351Z,9.98
2023-03-31T09:18:19.186Z,9.85
2023-03-31T09:21:30.174Z,9.85
2023-03-31T09:24:45.582Z,9.95
2023-03-31T09:27:54.361Z,9.86
2023-03-31T09:30:58.548Z,9.75
2023-03-31T09:34:14.342Z,9.57
2023-03-31T09:37:18.147Z,9.57
2023-03-31T09:40:25.508Z,9.62
2023-03-31T09:43:35.183Z,9.61
2023-03-31T09:46:40.508Z,9.74
2023-03-31T09:49:53.951Z,9.84
2023-03-31T09:53:00.852Z,9.74
2023-03-31T09:56:11.433Z,9.55
2023-03-31T09:59:19.955Z,9.58
2023-03-31T10:02:36.534Z,9.55
2023-03-31T10:05:49.874Z,9.53
2023-03-31T10:08:58.250Z,9.65
2023-03-31T10:12:08.318Z,9.61
2023-03-31T10:15:23.852Z,9.78
2023-03-31T10:18:36.728Z,9.84
2023-03-31T10:21:40.537Z,9.88
2023-03-31T10:24:46.870Z,10.16
2023-03-31T10:27:55.382Z,10.24
2023-03-31T10:31:03.285Z,10.19
2023-03-31T10:34:12.704Z,10.13
2023-03-31T10:37:22.881Z,10.25
2023-03-31T10:40:29.508Z,10.27
2023-03-31T10:43:41.083Z,10.31
2023-03-31T10:46:52.587Z,10.30
2023-03-31T10:49:59.030Z,10.32
2023-03-31T10:53:06.320Z,10.43
2023-03-31T10:56:39.358Z,10.48
2023-03-31T11:00:03.955Z,10.52
2023-03-31T11:03:57.178Z,10.49
2023-03-31T11:07:13.873Z,10.73
2023-03-31T11:10:41.069Z,10.73
2023-03-31T11:13:56.677Z,10.55
2023-03-31T11:17:18.457Z,10.63
2023-03-31T11:20:34.268Z,10.64
2023-03-31T11:23:44.159Z,10.68
2023-03-31T11:27:02.678Z,10.66
2023-03-31T11:30:15.664Z,10.65
2023-03-31T11:33:48.746Z,10.51
2023-03-31T11:37:41.612Z,10.66
2023-03-31T11:41:01.363Z,10.74
2023-03-31T11:44:07.816Z,11.18
2023-03-31T11:47:20.151Z,11.81
2023-03-31T11:50:29.032Z,12.26
2023-03-31T11:53:39.921Z,12.17
2023-03-31T11:56:43.980Z,12.29
2023-03-31T11:59:57.048Z,12.58
2023-03-31T12:03:11.281Z,12.63
2023-03-31T12:06:20.369Z,12.13
2023-03-31T12:09:34.187Z,12.30
2023-03-31T12:12:45.057Z,12.06
2023-03-31T12:16:02.879Z,11.72
2023-03-31T12:19:18.080Z,11.45
2023-03-31T12:22:28.972Z,11.35
2023-03-31T12:25:49.264Z,11.02
2023-03-31T12:29:02.106Z,11.09
2023-03-31T12:32:13.087Z,11.08
2023-03-31T12:35:26.150Z,11.08
2023-03-31T12:38:57.328Z,11.02
2023-03-31T12:42:40.723Z,11.19
2023-03-31T12:45:56.606Z,11.45
2023-03-31T12:49:29.498Z,11.38
2023-03-31T12:52:48.684Z,11.50
2023-03-31T12:55:58.879Z,11.14
2023-03-31T12:59:36.006Z,11.25
2023-03-31T13:02:43.154Z,11.02
2023-03-31T13:05:49.265Z,10.93
2023-03-31T13:08:56.592Z,11.07
2023-03-31T13:12:07.263Z,11.22
2023-03-31T13:15:16.707Z,11.68
2023-03-31T13:18:23.655Z,11.76
2023-03-31T13:21:28.183Z,11.71
2023-03-31T13:24:34.229Z,11.68
2023-03-31T13:27:39.677Z,11.40
2023-03-31T13:30:54.919Z,11.50
2023-03-31T13:34:01.152Z,11.49
2023-03-31T13:37:21.157Z,11.34
2023-03-31T13:41:20.501Z,11.38
2023-03-31T13:44:56.814Z,11.30
2023-03-31T13:48:29.746Z,11.19
2023-03-31T13:51:56.069Z,11.18
2023-03-31T13:55:45.263Z,11.16
2023-03-31T13:59:35.258Z,11.05
2023-03-31T14:03:07.134Z,11.06
2023-03-31T14:06:26.510Z,11.16
2023-03-31T14:09:41.240Z,11.31
2023-03-31T14:12:44.769Z,11.20
2023-03-31T14:15:53.321Z,11.13
2023-03-31T14:19:14.767Z,11.12
2023-03-31T14:22:35.174Z,11.25
2023-03-31T14:25:54.453Z,11.37
2023-03-31T14:29:13.710Z,11.46
2023-03-31T14:32:32.844Z,11.60
2023-03-31T14:35:43.023Z,11.68
2023-03-31T14:38:48.182Z,11.77
2023-03-31T14:41:54.714Z,11.76
2023-03-31T14:45:03.420Z,11.80
2023-03-31T14:48:16.363Z,12.15
2023-03-31T14:51:27.605Z,12.15
2023-03-31T14:54:38.294Z,12.31
2023-03-31T14:57:42.655Z,12.58
2023-03-31T15:00:46.852Z,12.55
2023-03-31T15:03:53.160Z,12.54
2023-03-31T15:06:58.506Z,12.62
2023-03-31T15:10:06.527Z,12.72
2023-03-31T15:13:12.569Z,12.57
2023-03-31T15:16:32.900Z,12.95
2023-03-31T15:19:37.358Z,12.62
2023-03-31T15:22:41.036Z,12.48
2023-03-31T15:25:46.319Z,12.80
2023-03-31T15:28:56.629Z,12.69
2023-03-31T15:32:01.071Z,12.62
2023-03-31T15:38:33.311Z,12.25
2023-03-31T15:41:38.426Z,12.11
2023-03-31T15:44:47.683Z,12.02
2023-03-31T15:47:55.489Z,11.81
2023-03-31T15:51:06.558Z,11.90
2023-03-31T15:54:34.368Z,11.86
2023-03-31T15:57:39.383Z,11.72
2023-03-31T16:00:47.720Z,11.67
2023-03-31T16:03:55.680Z,11.66
2023-03-31T16:07:05.249Z,11.60
2023-03-31T16:10:19.576Z,11.62
2023-03-31T16:13:25.652Z,11.67
2023-03-31T16:16:31.865Z,11.54
2023-03-31T16:19:52.228Z,11.52
2023-03-31T16:23:00.558Z,11.25
2023-03-31T16:26:04.468Z,11.31
2023-03-31T16:29:09.693Z,11.19
2023-03-31T16:32:16.474Z,11.10
2023-03-31T16:35:20.400Z,11.11
2023-03-31T16:38:26.532Z,11.07
2023-03-31T16:41:30.850Z,11.14
2023-03-31T16:44:35.888Z,11.16
2023-03-31T16:50:43.299Z,10.98
2023-03-31T16:53:48.541Z,10.98
2023-03-31T16:56:52.167Z,10.97
2023-03-31T16:59:58.860Z,11.00
2023-03-31T17:03:02.928Z,11.11
2023-03-31T17:06:11.748Z,11.02
2023-03-31T17:09:15.390Z,11.06
2023-03-31T17:12:18.971Z,11.01
2023-03-31T17:15:29.707Z,10.91
2023-03-31T17:18:33.241Z,10.92
2023-03-31T17:21:37.470Z,10.80
2023-03-31T17:24:41.096Z,10.82
2023-03-31T17:27:44.716Z,10.70
2023-03-31T17:30:50.340Z,10.54
2023-03-31T17:33:54.820Z,10.45
2023-03-31T17:36:58.609Z,10.43
2023-03-31T17:40:02.254Z,10.43
2023-03-31T17:43:06.009Z,10.40
2023-03-31T17:46:12.605Z,10.28
2023-03-31T17:49:17.137Z,10.28
2023-03-31T17:52:20.831Z,10.20
2023-03-31T17:55:24.993Z,10.16
2023-03-31T17:58:28.521Z,10.22
2023-03-31T18:01:33.524Z,10.16
2023-03-31T18:04:38.700Z,10.11
2023-03-31T18:07:43.290Z,10.21
2023-03-31T18:10:49.281Z,10.17
2023-03-31T18:13:54.073Z,10.03
2023-03-31T18:17:11.841Z,10.01
2023-03-31T18:20:16.673Z,9.98
2023-03-31T18:23:20.919Z,9.95
2023-03-31T18:26:27.168Z,9.93
2023-03-31T18:29:32.171Z,9.88
2023-03-31T18:32:45.552Z,9.92
2023-03-31T18:35:53.822Z,9.89
2023-03-31T18:38:57.626Z,9.89
2023-03-31T18:42:01.253Z,9.84
2023-03-31T18:45:08.868Z,9.87
2023-03-31T18:48:15.116Z,9.85
2023-03-31T18:51:20.170Z,9.81
2023-03-31T18:54:28.734Z,9.84
2023-03-31T18:57:32.377Z,9.89
2023-03-31T19:00:36.125Z,9.82
2023-03-31T19:03:42.544Z,9.76
2023-03-31T19:06:46.095Z,9.77
2023-03-31T19:09:49.695Z,9.85
2023-03-31T19:12:53.311Z,9.75
2023-03-31T19:15:56.795Z,9.65
2023-03-31T19:19:02.284Z,9.63
2023-03-31T19:22:05.900Z,9.56
2023-03-31T19:25:10.556Z,9.51
2023-03-31T19:28:18.245Z,9.55
2023-03-31T19:31:21.955Z,9.66
2023-03-31T19:34:27.267Z,9.56
2023-03-31T19:37:31.200Z,9.64
2023-03-31T19:40:34.701Z,9.51
2023-03-31T19:43:38.459Z,9.49
2023-03-31T19:46:41.977Z,9.39
2023-03-31T19:49:47.182Z,9.37
2023-03-31T19:52:51.002Z,9.32
2023-03-31T19:55:59.810Z,9.30
2023-03-31T19:59:03.514Z,9.25
2023-03-31T20:02:09.585Z,9.26
2023-03-31T20:05:14.585Z,9.23
2023-03-31T20:08:19.555Z,9.07
2023-03-31T20:11:24.382Z,9.14
2023-03-31T20:14:28.310Z,9.06
2023-03-31T20:17:31.916Z,8.95
2023-03-31T20:20:36.914Z,8.84
2023-03-31T20:23:42.998Z,8.79
2023-03-31T20:26:47.852Z,8.79
2023-03-31T20:29:51.359Z,8.75
2023-03-31T20:32:54.924Z,8.72
2023-03-31T20:36:07.838Z,8.68
2023-03-31T20:39:15.474Z,8.73
2023-03-31T20:42:20.783Z,8.72
2023-03-31T20:45:24.344Z,8.78
2023-03-31T20:48:27.805Z,8.74
2023-03-31T20:51:36.328Z,8.82
2023-03-31T20:54:39.760Z,8.73
2023-03-31T20:57:43.260Z,8.81
2023-03-31T21:00:46.862Z,8.81
2023-03-31T21:03:51.280Z,8.85
2023-03-31T21:06:56.139Z,8.79
2023-03-31T21:10:00.649Z,8.79
2023-03-31T21:13:04.479Z,8.80
2023-03-31T21:16:08.555Z,8.81
2023-03-31T21:19:13.160Z,8.82
2023-03-31T21:22:18.821Z,8.86
2023-03-31T21:25:22.386Z,8.82
2023-03-31T21:28:29.924Z,8.84
2023-03-31T21:31:33.738Z,8.81
2023-03-31T21:34:37.337Z,8.81
2023-03-31T21:37:42.352Z,8.71
2023-03-31T21:40:45.990Z,8.66
2023-03-31T21:43:50.041Z,8.69
2023-03-31T21:46:53.764Z,8.67
2023-03-31T21:49:57.414Z,8.63
2023-03-31T21:53:04.794Z,8.63
2023-03-31T21:56:08.478Z,8.53
2023-03-31T21:59:11.989Z,8.46
2023-03-31T22:02:15.733Z,8.46
2023-03-31T22:05:19.675Z,8.45
2023-03-31T22:08:25.382Z,8.41
2023-03-31T22:11:28.984Z,8.40
2023-03-31T22:14:32.596Z,8.37
2023-03-31T22:17:36.300Z,8.33
2023-03-31T22:20:40.218Z,8.38
2023-03-31T22:23:45.229Z,8.41
2023-03-31T22:26:48.757Z,8.47
2023-03-31T22:29:52.253Z,8.45
2023-03-31T22:32:56.193Z,8.47
2023-03-31T22:35:59.798Z,8.43
2023-03-31T22:39:05.128Z,8.51
2023-03-31T22:42:08.712Z,8.57
2023-03-31T22:45:20.106Z,8.53
2023-03-31T22:48:23.615Z,8.53
2023-03-31T22:51:27.283Z,8.53
2023-03-31T22:54:32.394Z,8.54
2023-03-31T22:57:37.190Z,8.52
2023-03-31T23:00:41.532Z,8.53
2023-03-31T23:03:46.863Z,8.53
2023-03-31T23:06:50.511Z,8.55
2023-03-31T23:09:55.365Z,8.53
2023-03-31T23:12:58.895Z,8.53
2023-03-31T23:16:06.802Z,8.55
2023-03-31T23:19:10.606Z,8.56
2023-03-31T23:22:14.265Z,8.56
2023-03-31T23:25:19.468Z,8.57
2023-03-31T23:28:23.015Z,8.57
2023-03-31T23:31:29.792Z,8.58
2023-03-31T23:34:33.344Z,8.58
2023-03-31T23:37:36.829Z,8.58
2023-03-31T23:40:41.906Z,8.60
2023-03-31T23:43:46.029Z,8.57
2023-03-31T23:46:49.641Z,8.57
2023-03-31T23:49:54.249Z,8.59
2023-03-31T23:52:59.438Z,8.59
2023-03-31T23:56:08.859Z,8.59
2023-03-31T23:59:12.353Z,8.60
